createdAt,value
2023-02-17T00:01:31.698Z,79.50
2023-02-17T00:04:00.392Z,72.53
2023-02-17T00:06:30.055Z,78.67
2023-02-17T00:08:58.184Z,79.87
2023-02-17T00:11:25.392Z,77.60
2023-02-17T00:13:55.247Z,80.67
2023-02-17T00:16:26.355Z,83.27
2023-02-17T00:19:00.307Z,83.40
2023-02-17T00:21:31.212Z,80.00
2023-02-17T00:23:59.173Z,72.90
2023-02-17T00:26:26.167Z,85.00
2023-02-17T00:28:53.277Z,78.90
2023-02-17T00:31:23.575Z,84.73
2023-02-17T00:33:53.560Z,79.07
2023-02-17T00:36:20.750Z,78.87
2023-02-17T00:38:49.065Z,84.47
2023-02-17T00:41:17.926Z,74.60
2023-02-17T00:43:45.226Z,76.10
2023-02-17T00:46:12.428Z,82.80
2023-02-17T00:48:39.786Z,84.43
2023-02-17T00:51:07.079Z,79.30
2023-02-17T00:53:34.705Z,79.73
2023-02-17T00:56:01.979Z,77.17
2023-02-17T00:58:29.301Z,77.60
2023-02-17T01:00:57.952Z,74.80
2023-02-17T01:03:25.827Z,73.60
2023-02-17T01:05:54.591Z,79.93
2023-02-17T01:08:23.537Z,78.47
2023-02-17T01:10:51.968Z,76.90
2023-02-17T01:13:19.951Z,79.63
2023-02-17T01:15:53.328Z,79.00
2023-02-17T01:18:24.035Z,86.07
2023-02-17T01:20:52.096Z,86.20
2023-02-17T01:23:19.666Z,78.03
2023-02-17T01:25:49.059Z,81.23
2023-02-17T01:28:21.050Z,76.27
2023-02-17T01:30:49.145Z,82.53
2023-02-17T01:33:16.219Z,77.67
2023-02-17T01:35:43.298Z,80.03
2023-02-17T01:38:10.468Z,73.27
2023-02-17T01:40:37.728Z,79.37
2023-02-17T01:43:06.818Z,77.77
2023-02-17T01:45:41.595Z,73.27
2023-02-17T01:48:17.038Z,74.70
2023-02-17T01:51:09.497Z,76.80
2023-02-17T01:54:03.109Z,78.60
2023-02-17T01:56:33.856Z,78.57
2023-02-17T01:59:07.930Z,71.40
2023-02-17T02:01:35.653Z,81.33
2023-02-17T02:04:06.274Z,75.97
2023-02-17T02:06:36.338Z,73.10
2023-02-17T02:09:25.809Z,79.93
2023-02-17T02:11:53.208Z,77.67
2023-02-17T02:14:22.481Z,75.43
2023-02-17T02:17:13.942Z,85.07
2023-02-17T02:20:24.356Z,78.13
2023-02-17T02:23:08.994Z,73.53
2023-02-17T02:25:35.983Z,75.57
2023-02-17T02:28:21.613Z,81.17
2023-02-17T02:31:18.843Z,73.43
2023-02-17T02:34:10.288Z,78.00
2023-02-17T02:37:11.542Z,75.80
2023-02-17T02:39:44.110Z,70.00
2023-02-17T02:42:16.992Z,76.17
2023-02-17T02:44:44.026Z,70.50
2023-02-17T02:47:35.869Z,76.17
2023-02-17T02:50:03.522Z,75.07
2023-02-17T02:53:10.960Z,77.93
2023-02-17T02:55:56.630Z,74.20
2023-02-17T02:58:32.144Z,72.67
2023-02-17T03:01:19.883Z,71.97
2023-02-17T03:04:09.550Z,73.87
2023-02-17T03:07:21.378Z,74.30
2023-02-17T03:09:59.030Z,70.83
2023-02-17T03:12:27.614Z,70.43
2023-02-17T03:15:06.277Z,68.93
2023-02-17T03:17:34.036Z,69.53
2023-02-17T03:20:04.383Z,74.07
2023-02-17T03:22:41.743Z,68.70
2023-02-17T03:25:09.694Z,71.97
2023-02-17T03:27:36.696Z,73.07
2023-02-17T03:30:07.956Z,71.43
2023-02-17T03:32:35.741Z,72.80
2023-02-17T03:35:03.826Z,73.83
2023-02-17T03:37:31.130Z,74.00
2023-02-17T03:39:58.206Z,67.87
2023-02-17T03:42:25.216Z,76.57
2023-02-17T03:44:52.225Z,63.93
2023-02-17T03:47:19.280Z,74.50
2023-02-17T03:49:46.301Z,75.13
2023-02-17T03:52:13.385Z,75.47
2023-02-17T03:54:40.398Z,71.50
2023-02-17T03:57:07.404Z,70.93
2023-02-17T03:59:34.610Z,74.43
2023-02-17T04:02:01.714Z,79.37
2023-02-17T04:04:28.744Z,74.23
2023-02-17T04:06:55.926Z,75.47
2023-02-17T04:09:22.989Z,73.00
2023-02-17T04:11:50.009Z,74.13
2023-02-17T04:14:17.031Z,67.50
2023-02-17T04:16:44.037Z,71.10
2023-02-17T04:19:11.102Z,64.23
2023-02-17T04:21:38.141Z,71.10
2023-02-17T04:24:05.445Z,69.90
2023-02-17T04:26:32.472Z,66.13
2023-02-17T04:28:59.485Z,69.27
2023-02-17T04:31:28.196Z,68.27
2023-02-17T04:33:55.365Z,68.73
2023-02-17T04:36:22.595Z,63.20
2023-02-17T04:38:49.640Z,65.53
2023-02-17T04:41:16.713Z,68.53
2023-02-17T04:43:43.756Z,66.10
2023-02-17T04:46:11.980Z,66.60
2023-02-17T04:48:39.601Z,65.83
2023-02-17T04:51:06.810Z,72.83
2023-02-17T04:53:33.826Z,66.40
2023-02-17T04:56:00.918Z,70.17
2023-02-17T04:58:27.955Z,63.67
2023-02-17T05:00:55.011Z,70.93
2023-02-17T05:03:22.046Z,68.13
2023-02-17T05:05:50.545Z,67.40
2023-02-17T05:08:17.638Z,72.33
2023-02-17T05:10:44.630Z,62.03
2023-02-17T05:13:11.683Z,70.50
2023-02-17T05:15:38.786Z,62.07
2023-02-17T05:18:05.965Z,68.63
2023-02-17T05:20:33.048Z,67.43
2023-02-17T05:23:00.445Z,64.43
2023-02-17T05:25:27.472Z,64.97
2023-02-17T05:27:54.546Z,77.13
2023-02-17T05:30:21.838Z,67.57
2023-02-17T05:32:49.019Z,68.50
2023-02-17T05:35:16.237Z,64.77
2023-02-17T05:37:43.238Z,60.53
2023-02-17T05:40:11.432Z,65.27
2023-02-17T05:42:38.447Z,71.63
2023-02-17T05:45:05.910Z,67.87
2023-02-17T05:47:32.905Z,64.13
2023-02-17T05:49:59.918Z,67.93
2023-02-17T05:52:27.034Z,61.40
2023-02-17T05:54:54.198Z,62.93
2023-02-17T05:57:21.298Z,63.87
2023-02-17T05:59:48.418Z,72.40
2023-02-17T06:02:15.458Z,63.10
2023-02-17T06:04:42.551Z,63.70
2023-02-17T06:07:09.673Z,64.63
2023-02-17T06:09:36.675Z,65.37
2023-02-17T06:12:04.281Z,61.67
2023-02-17T06:14:31.496Z,67.43
2023-02-17T06:17:01.093Z,65.00
2023-02-17T06:19:28.754Z,74.13
2023-02-17T06:21:57.136Z,68.33
2023-02-17T06:24:24.937Z,64.77
2023-02-17T06:26:51.959Z,69.10
2023-02-17T06:29:18.985Z,65.67
2023-02-17T06:31:46.093Z,67.27
2023-02-17T06:34:13.321Z,64.50
2023-02-17T06:36:40.498Z,67.23
2023-02-17T06:39:07.525Z,59.80
2023-02-17T06:41:34.521Z,70.63
2023-02-17T06:44:01.668Z,65.90
2023-02-17T06:46:28.767Z,64.97
2023-02-17T06:48:55.842Z,62.47
2023-02-17T06:51:22.981Z,66.50
2023-02-17T06:53:50.025Z,67.17
2023-02-17T06:56:17.040Z,60.80
2023-02-17T06:58:44.140Z,60.67
2023-02-17T07:01:27.461Z,67.30
2023-02-17T07:03:56.264Z,69.60
2023-02-17T07:06:25.026Z,62.13
2023-02-17T07:08:52.519Z,66.57
2023-02-17T07:11:20.144Z,60.20
2023-02-17T07:13:47.600Z,61.27
2023-02-17T07:16:15.849Z,60.37
2023-02-17T07:18:43.310Z,62.17
2023-02-17T07:21:10.567Z,63.93
2023-02-17T07:23:39.556Z,65.87
2023-02-17T07:26:10.560Z,62.37
2023-02-17T07:28:39.624Z,63.20
2023-02-17T07:31:12.902Z,66.00
2023-02-17T07:33:41.299Z,55.30
2023-02-17T07:36:14.344Z,67.93
2023-02-17T07:38:43.582Z,63.50
2023-02-17T07:41:19.905Z,70.97
2023-02-17T07:43:48.270Z,63.80
2023-02-17T07:46:15.921Z,62.30
2023-02-17T07:48:42.975Z,60.00
2023-02-17T07:51:18.510Z,64.87
2023-02-17T07:53:45.952Z,57.90
2023-02-17T07:56:16.465Z,66.53
2023-02-17T07:58:45.413Z,56.60
2023-02-17T08:01:16.329Z,59.27
2023-02-17T08:03:44.205Z,62.53
2023-02-17T08:06:20.673Z,63.70
2023-02-17T08:09:08.204Z,62.87
2023-02-17T08:11:54.314Z,58.50
2023-02-17T08:14:23.373Z,60.33
2023-02-17T08:16:50.736Z,58.43
2023-02-17T08:19:18.136Z,63.30
2023-02-17T08:21:45.673Z,60.87
2023-02-17T08:24:13.089Z,57.60
2023-02-17T08:26:40.412Z,58.67
2023-02-17T08:29:07.969Z,61.70
2023-02-17T08:31:37.185Z,57.60
2023-02-17T08:34:08.285Z,57.20
2023-02-17T08:36:37.606Z,56.37
2023-02-17T08:39:14.311Z,57.53
2023-02-17T08:41:42.460Z,57.47
2023-02-17T08:44:21.055Z,63.43
2023-02-17T08:46:50.471Z,60.00
2023-02-17T08:49:21.842Z,59.87
2023-02-17T08:51:50.272Z,54.47
2023-02-17T08:54:17.956Z,55.33
2023-02-17T08:56:45.715Z,54.07
2023-02-17T08:59:13.318Z,54.70
2023-02-17T09:01:41.616Z,50.90
2023-02-17T09:04:11.971Z,55.30
2023-02-17T09:06:52.642Z,53.70
2023-02-17T09:09:23.854Z,57.37
2023-02-17T09:11:50.941Z,52.63
2023-02-17T09:14:17.982Z,52.40
2023-02-17T09:16:45.070Z,53.10
2023-02-17T09:19:12.122Z,49.17
2023-02-17T09:21:39.115Z,54.60
2023-02-17T09:24:06.663Z,54.03
2023-02-17T09:26:35.236Z,54.00
2023-02-17T09:29:04.261Z,51.13
2023-02-17T09:31:32.106Z,62.80
2023-02-17T09:33:59.472Z,55.37
2023-02-17T09:36:33.492Z,57.33
2023-02-17T09:39:01.850Z,53.20
2023-02-17T09:41:53.335Z,61.63
2023-02-17T09:44:24.470Z,51.93
2023-02-17T09:47:21.349Z,54.20
2023-02-17T09:50:01.695Z,49.10
2023-02-17T09:52:54.548Z,53.27
2023-02-17T09:55:32.762Z,52.23
2023-02-17T09:58:18.363Z,54.80
2023-02-17T10:00:54.623Z,54.80
2023-02-17T10:03:41.486Z,51.13
2023-02-17T10:06:34.187Z,54.73
2023-02-17T10:09:28.845Z,53.33
2023-02-17T10:12:15.237Z,59.10
2023-02-17T10:15:04.562Z,54.80
2023-02-17T10:18:08.304Z,54.60
2023-02-17T10:21:03.578Z,53.27
2023-02-17T10:23:31.298Z,49.97
2023-02-17T10:26:22.147Z,58.70
2023-02-17T10:29:16.565Z,46.87
2023-02-17T10:31:47.683Z,51.90
2023-02-17T10:34:46.620Z,53.53
2023-02-17T10:37:52.762Z,50.50
2023-02-17T10:40:21.617Z,52.87
2023-02-17T10:42:53.458Z,50.87
2023-02-17T10:45:41.003Z,45.77
2023-02-17T10:48:32.787Z,54.30
2023-02-17T10:51:02.003Z,53.97
2023-02-17T10:53:40.543Z,51.60
2023-02-17T10:56:10.464Z,51.63
2023-02-17T10:59:17.532Z,53.50
2023-02-17T11:01:44.673Z,50.00
2023-02-17T11:04:14.255Z,56.63
2023-02-17T11:06:50.060Z,50.00
2023-02-17T11:09:32.056Z,58.93
2023-02-17T11:12:02.657Z,44.23
2023-02-17T11:14:36.933Z,49.07
2023-02-17T11:17:26.149Z,49.73
2023-02-17T11:20:04.886Z,52.63
2023-02-17T11:22:46.252Z,50.27
2023-02-17T11:25:34.455Z,53.93
2023-02-17T11:28:05.672Z,49.90
2023-02-17T11:30:35.956Z,53.17
2023-02-17T11:33:14.607Z,55.67
2023-02-17T11:35:46.232Z,50.63
2023-02-17T11:38:33.620Z,58.33
2023-02-17T11:41:07.720Z,54.93
2023-02-17T11:43:36.903Z,53.60
2023-02-17T11:46:50.218Z,54.57
2023-02-17T11:49:46.961Z,51.90
2023-02-17T11:53:06.080Z,55.20
2023-02-17T11:56:25.291Z,54.13
2023-02-17T11:59:18.388Z,55.30
2023-02-17T12:01:54.008Z,57.50
2023-02-17T12:04:31.521Z,59.37
2023-02-17T12:07:39.165Z,58.63
2023-02-17T12:10:37.580Z,53.47
2023-02-17T12:13:36.514Z,51.57
2023-02-17T12:16:15.064Z,55.37
2023-02-17T12:19:24.797Z,50.43
2023-02-17T12:22:22.186Z,52.27
2023-02-17T12:25:11.538Z,49.73
2023-02-17T12:28:03.367Z,55.03
2023-02-17T12:31:02.742Z,53.73
2023-02-17T12:33:58.355Z,45.23
2023-02-17T12:36:38.149Z,51.80
2023-02-17T12:39:24.468Z,56.03
2023-02-17T12:42:21.229Z,50.27
2023-02-17T12:44:54.269Z,56.33
2023-02-17T12:47:56.335Z,51.10
2023-02-17T12:50:35.486Z,52.43
2023-02-17T12:53:08.134Z,46.57
2023-02-17T12:55:57.499Z,47.00
2023-02-17T12:58:29.870Z,44.00
2023-02-17T13:01:14.877Z,45.10
2023-02-17T13:03:42.084Z,45.10
2023-02-17T13:06:29.447Z,44.17
2023-02-17T13:09:31.066Z,48.80
2023-02-17T13:12:22.674Z,45.47
2023-02-17T13:14:56.657Z,45.23
2023-02-17T13:17:32.629Z,46.97
2023-02-17T13:20:11.334Z,43.63
2023-02-17T13:22:42.452Z,43.73
2023-02-17T13:25:29.928Z,46.20
2023-02-17T13:28:01.721Z,40.37
2023-02-17T13:30:42.950Z,41.63
2023-02-17T13:33:21.956Z,38.33
2023-02-17T13:35:49.447Z,38.13
2023-02-17T13:38:32.385Z,38.10
2023-02-17T13:41:06.783Z,34.43
2023-02-17T13:43:42.336Z,38.63
2023-02-17T13:46:25.190Z,39.80
2023-02-17T13:49:02.950Z,31.93
2023-02-17T13:51:32.745Z,32.93
2023-02-17T13:54:12.509Z,37.10
2023-02-17T13:56:40.191Z,32.90
2023-02-17T13:59:18.152Z,34.83
2023-02-17T14:01:47.036Z,32.63
2023-02-17T14:04:31.327Z,32.70
2023-02-17T14:07:05.077Z,33.87
2023-02-17T14:09:34.869Z,34.07
2023-02-17T14:12:06.291Z,35.20
2023-02-17T14:14:37.330Z,35.97
2023-02-17T14:17:06.825Z,36.50
2023-02-17T14:19:54.135Z,35.90
2023-02-17T14:22:39.243Z,39.60
2023-02-17T14:25:25.758Z,39.67
2023-02-17T14:27:52.991Z,34.90
2023-02-17T14:30:40.004Z,39.47
2023-02-17T14:33:27.288Z,36.40
2023-02-17T14:36:09.182Z,37.03
2023-02-17T14:38:42.801Z,34.47
2023-02-17T14:41:10.406Z,35.97
2023-02-17T14:43:37.909Z,35.23
2023-02-17T14:46:05.707Z,34.10
2023-02-17T14:48:32.974Z,36.47
2023-02-17T14:51:00.079Z,34.67
2023-02-17T14:53:28.211Z,30.93
2023-02-17T14:56:06.951Z,34.33
2023-02-17T14:58:34.605Z,31.03
2023-02-17T15:01:02.032Z,36.77
2023-02-17T15:03:29.254Z,31.80
2023-02-17T15:05:56.505Z,33.07
2023-02-17T15:08:34.862Z,35.80
2023-02-17T15:11:02.975Z,31.87
2023-02-17T15:13:31.777Z,34.33
2023-02-17T15:15:59.258Z,34.37
2023-02-17T15:18:28.043Z,31.43
2023-02-17T15:20:55.580Z,35.43
2023-02-17T15:23:25.928Z,32.83
2023-02-17T15:25:55.490Z,34.17
2023-02-17T15:28:22.817Z,32.73
2023-02-17T15:30:54.597Z,32.73
2023-02-17T15:33:24.541Z,32.77
2023-02-17T15:35:54.420Z,35.13
2023-02-17T15:38:22.568Z,33.27
2023-02-17T15:40:49.933Z,38.70
2023-02-17T15:43:22.623Z,41.67
2023-02-17T15:45:50.027Z,31.50
2023-02-17T15:48:24.563Z,36.43
2023-02-17T15:50:52.888Z,31.43
2023-02-17T15:53:20.359Z,31.73
2023-02-17T15:55:48.528Z,31.33
2023-02-17T15:58:22.271Z,33.43
2023-02-17T16:00:51.198Z,34.57
2023-02-17T16:03:18.698Z,30.80
2023-02-17T16:05:46.028Z,31.80
2023-02-17T16:08:13.046Z,28.80
2023-02-17T16:10:42.546Z,28.37
2023-02-17T16:13:15.295Z,32.60
2023-02-17T16:15:43.001Z,31.20
2023-02-17T16:18:28.179Z,28.87
2023-02-17T16:20:55.219Z,28.47
2023-02-17T16:23:22.348Z,27.90
2023-02-17T16:25:50.336Z,28.93
2023-02-17T16:28:22.048Z,25.17
2023-02-17T16:30:50.716Z,25.17
2023-02-17T16:33:18.176Z,25.20
2023-02-17T16:35:45.729Z,23.07
2023-02-17T16:38:23.167Z,20.83
2023-02-17T16:40:52.866Z,22.00
2023-02-17T16:43:23.933Z,22.10
2023-02-17T16:46:02.544Z,24.00
2023-02-17T16:48:35.547Z,21.67
2023-02-17T16:51:02.654Z,22.13
2023-02-17T16:53:29.711Z,24.97
2023-02-17T16:55:57.162Z,20.37
2023-02-17T16:58:26.718Z,20.87
2023-02-17T17:00:55.886Z,21.30
2023-02-17T17:03:23.417Z,22.77
2023-02-17T17:05:52.606Z,20.50
2023-02-17T17:08:21.796Z,21.57
2023-02-17T17:10:49.758Z,19.10
2023-02-17T17:13:17.079Z,21.90
2023-02-17T17:15:45.793Z,20.17
2023-02-17T17:18:21.683Z,19.93
2023-02-17T17:20:49.139Z,19.87
2023-02-17T17:23:16.789Z,19.27
2023-02-17T17:25:47.024Z,17.33
2023-02-17T17:28:18.679Z,23.67
2023-02-17T17:30:47.569Z,18.77
2023-02-17T17:33:15.008Z,17.60
2023-02-17T17:35:42.171Z,17.27
2023-02-17T17:38:15.661Z,17.10
2023-02-17T17:40:48.912Z,17.87
2023-02-17T17:43:21.707Z,21.37
2023-02-17T17:45:51.073Z,20.20
2023-02-17T17:48:19.037Z,15.60
2023-02-17T17:50:46.398Z,16.77
2023-02-17T17:53:13.399Z,15.13
2023-02-17T17:55:40.450Z,16.53
2023-02-17T17:58:07.751Z,19.40
2023-02-17T18:00:34.837Z,16.13
2023-02-17T18:03:01.886Z,18.80
2023-02-17T18:05:29.023Z,16.40
2023-02-17T18:07:56.656Z,16.43
2023-02-17T18:10:23.885Z,15.27
2023-02-17T18:12:51.072Z,14.93
2023-02-17T18:15:18.765Z,14.77
2023-02-17T18:17:46.797Z,19.43
2023-02-17T18:20:14.382Z,13.73
2023-02-17T18:22:41.933Z,15.27
2023-02-17T18:25:10.143Z,14.27
2023-02-17T18:27:46.153Z,15.30
2023-02-17T18:30:18.715Z,15.03
2023-02-17T18:32:46.765Z,15.87
2023-02-17T18:35:14.922Z,15.60
2023-02-17T18:37:42.345Z,13.63
2023-02-17T18:40:14.559Z,15.57
2023-02-17T18:42:45.545Z,15.13
2023-02-17T18:45:13.470Z,13.33
2023-02-17T18:47:40.853Z,14.37
2023-02-17T18:50:09.596Z,12.23
2023-02-17T18:52:41.290Z,15.80
2023-02-17T18:55:09.734Z,13.37
2023-02-17T18:57:37.181Z,17.73
2023-02-17T19:00:08.358Z,16.90
2023-02-17T19:02:40.203Z,14.67
2023-02-17T19:05:09.477Z,12.20
2023-02-17T19:07:37.104Z,14.87
2023-02-17T19:10:05.888Z,13.70
2023-02-17T19:12:34.289Z,16.40
2023-02-17T19:15:01.464Z,12.00
2023-02-17T19:17:28.498Z,11.43
2023-02-17T19:19:55.703Z,12.90
2023-02-17T19:22:22.820Z,11.57
2023-02-17T19:24:54.953Z,13.27
2023-02-17T19:27:22.005Z,11.40
2023-02-17T19:29:49.054Z,12.33
2023-02-17T19:32:16.152Z,12.67
2023-02-17T19:34:43.213Z,11.77
2023-02-17T19:37:10.290Z,13.00
2023-02-17T19:39:37.321Z,13.17
2023-02-17T19:42:05.002Z,14.97
2023-02-17T19:44:32.473Z,15.37
2023-02-17T19:47:00.921Z,14.43
2023-02-17T19:49:28.094Z,14.90
2023-02-17T19:51:55.955Z,12.50
2023-02-17T19:54:24.523Z,14.53
2023-02-17T19:56:52.078Z,15.40
2023-02-17T19:59:19.604Z,14.97
2023-02-17T20:01:46.814Z,15.90
2023-02-17T20:04:14.370Z,14.00
2023-02-17T20:06:48.000Z,16.23
2023-02-17T20:09:21.252Z,15.70
2023-02-17T20:11:52.298Z,15.93
2023-02-17T20:14:20.642Z,15.07
2023-02-17T20:16:48.645Z,14.33
2023-02-17T20:19:16.376Z,15.70
2023-02-17T20:21:44.953Z,14.60
2023-02-17T20:24:15.578Z,16.90
2023-02-17T20:26:46.455Z,15.87
2023-02-17T20:29:14.779Z,15.83
2023-02-17T20:31:43.269Z,14.60
2023-02-17T20:34:35.485Z,17.20
2023-02-17T20:37:02.686Z,16.97
2023-02-17T20:39:29.743Z,18.30
2023-02-17T20:41:57.503Z,17.10
2023-02-17T20:44:27.759Z,19.27
2023-02-17T20:46:56.235Z,17.20
2023-02-17T20:49:23.907Z,20.20
2023-02-17T20:51:51.225Z,17.30
2023-02-17T20:54:18.263Z,14.00
2023-02-17T20:56:47.405Z,14.07
2023-02-17T20:59:15.438Z,14.43
2023-02-17T21:01:43.207Z,15.87
2023-02-17T21:04:11.021Z,14.30
2023-02-17T21:06:41.335Z,13.03
2023-02-17T21:09:15.861Z,14.57
2023-02-17T21:11:43.123Z,15.73
2023-02-17T21:14:11.036Z,14.13
2023-02-17T21:16:38.432Z,14.87
2023-02-17T21:19:06.100Z,13.00
2023-02-17T21:21:33.359Z,17.53
2023-02-17T21:24:00.644Z,15.33
2023-02-17T21:26:27.980Z,13.00
2023-02-17T21:28:55.302Z,15.13
2023-02-17T21:31:22.650Z,13.40
2023-02-17T21:33:49.734Z,13.70
2023-02-17T21:36:18.096Z,10.67
2023-02-17T21:38:46.354Z,12.13
2023-02-17T21:41:22.126Z,11.67
2023-02-17T21:44:08.484Z,13.13
2023-02-17T21:46:37.365Z,12.27
2023-02-17T21:49:04.873Z,13.83
2023-02-17T21:51:32.493Z,12.37
2023-02-17T21:53:59.569Z,7.97
2023-02-17T21:56:26.896Z,9.37
2023-02-17T21:58:55.651Z,8.93
2023-02-17T22:01:26.155Z,8.63
2023-02-17T22:03:54.084Z,8.33
2023-02-17T22:06:28.397Z,10.53
2023-02-17T22:08:57.222Z,9.27
2023-02-17T22:11:33.863Z,6.37
2023-02-17T22:14:05.434Z,6.40
2023-02-17T22:16:35.810Z,6.57
2023-02-17T22:19:05.234Z,5.33
2023-02-17T22:21:32.775Z,7.10
2023-02-17T22:24:01.081Z,6.43
2023-02-17T22:26:29.131Z,8.93
2023-02-17T22:28:57.004Z,4.87
2023-02-17T22:31:28.373Z,6.30
2023-02-17T22:34:02.567Z,3.87
2023-02-17T22:36:34.957Z,6.43
2023-02-17T22:39:04.531Z,4.00
2023-02-17T22:41:33.056Z,6.27
2023-02-17T22:44:01.690Z,2.30
2023-02-17T22:46:29.091Z,3.40
2023-02-17T22:48:57.331Z,2.43
2023-02-17T22:51:44.708Z,5.23
2023-02-17T22:54:11.727Z,7.73
2023-02-17T22:56:39.744Z,2.67
2023-02-17T22:59:07.069Z,5.90
2023-02-17T23:01:36.486Z,3.73
2023-02-17T23:04:05.134Z,3.17
2023-02-17T23:06:36.920Z,3.67
2023-02-17T23:09:07.356Z,2.90
2023-02-17T23:11:57.587Z,3.97
2023-02-17T23:14:37.906Z,2.93
2023-02-17T23:17:09.856Z,6.03
2023-02-17T23:19:38.739Z,2.33
2023-02-17T23:22:15.941Z,3.47
2023-02-17T23:24:47.568Z,2.80
2023-02-17T23:27:14.762Z,5.43
2023-02-17T23:29:42.615Z,4.53
2023-02-17T23:32:09.960Z,2.97
2023-02-17T23:34:38.212Z,2.57
2023-02-17T23:37:05.201Z,4.50
2023-02-17T23:39:32.214Z,2.13
2023-02-17T23:41:59.245Z,2.57
2023-02-17T23:44:26.290Z,7.17
2023-02-17T23:46:53.310Z,3.47
2023-02-17T23:49:20.448Z,5.10
2023-02-17T23:51:47.562Z,5.83
2023-02-17T23:54:15.332Z,4.00
2023-02-17T23:56:42.960Z,2.03
2023-02-17T23:59:10.349Z,5.27
